Time;durP1;ratioP1;P1;durP2;ratioP2;P2;SDS_P1;SDS_P2;PMS_P1;PMS_P2;Temp;Humidity;BMP_temperature;BMP_pressure;BME280_temperature;BME280_humidity;BME280_pressure;Samples;Min_cycle;Max_cycle;Signal;HPM_P1;HPM_P2
2022/05/09 00:01:54;;;;;;;6.00;3.40;;;;;;;11.34;78.31;99656.69;5046723;28;20212;-82
2022/05/09 00:04:22;;;;;;;6.30;3.63;;;;;;;11.32;78.56;99648.31;5047095;28;20684;-92
2022/05/09 00:06:50;;;;;;;9.13;3.67;;;;;;;11.31;78.54;99646.66;5046864;28;20999;-91
2022/05/09 00:09:17;;;;;;;8.93;3.60;;;;;;;11.30;78.81;99647.59;5046885;28;20203;-82
2022/05/09 00:11:45;;;;;;;9.50;3.80;;;;;;;11.32;79.01;99651.69;5046893;28;20230;-88
2022/05/09 00:14:13;;;;;;;6.77;3.50;;;;;;;11.30;79.09;99645.03;5047049;28;20200;-82
2022/05/09 00:16:40;;;;;;;6.90;3.50;;;;;;;11.24;79.55;99642.88;5046726;28;20384;-83
2022/05/09 00:19:09;;;;;;;6.17;3.33;;;;;;;11.23;79.74;99643.81;5046920;28;20207;-92
2022/05/09 00:21:40;;;;;;;4.97;3.20;;;;;;;11.24;79.80;99640.31;5046933;28;20227;-82
2022/05/09 00:24:09;;;;;;;7.00;3.40;;;;;;;11.24;79.81;99648.00;5046525;28;20219;-92
2022/05/09 00:26:35;;;;;;;6.00;3.50;;;;;;;11.22;80.32;99647.25;5046979;28;20284;-91
2022/05/09 00:29:04;;;;;;;5.27;3.40;;;;;;;11.19;80.30;99639.78;5046736;28;20214;-83
2022/05/09 00:31:31;;;;;;;5.17;3.30;;;;;;;11.20;80.29;99643.97;5046346;28;20223;-92
2022/05/09 00:33:58;;;;;;;5.20;3.17;;;;;;;11.19;80.52;99652.59;5046981;28;21031;-82
2022/05/09 00:36:25;;;;;;;9.07;3.37;;;;;;;11.15;80.26;99651.16;5046575;28;20234;-91
2022/05/09 00:38:54;;;;;;;6.40;3.30;;;;;;;11.09;80.67;99653.19;5046373;28;20195;-92
2022/05/09 00:41:31;;;;;;;7.63;3.60;;;;;;;11.06;81.06;99648.28;5046721;28;20235;-91
2022/05/09 00:44:00;;;;;;;6.63;3.20;;;;;;;11.06;81.48;99648.28;5046396;28;21336;-92
2022/05/09 00:46:29;;;;;;;7.93;3.60;;;;;;;11.04;81.93;99650.09;5046809;28;20307;-83
2022/05/09 00:49:00;;;;;;;6.00;3.20;;;;;;;11.03;82.91;99645.09;5046543;28;20686;-83
2022/05/09 00:51:29;;;;;;;5.17;3.20;;;;;;;11.01;82.78;99645.19;5046255;28;20223;-91
2022/05/09 00:54:01;;;;;;;8.43;3.30;;;;;;;10.99;83.04;99652.13;5046148;28;20263;-91
2022/05/09 00:56:35;;;;;;;6.53;3.33;;;;;;;10.95;82.95;99640.47;5046950;28;20222;-83
2022/05/09 00:59:08;;;;;;;7.37;3.27;;;;;;;10.95;83.09;99653.25;5050190;28;20211;-83
2022/05/09 01:01:36;;;;;;;5.47;3.50;;;;;;;10.94;83.75;99649.09;5049857;28;20256;-84
2022/05/09 01:04:08;;;;;;;6.20;3.37;;;;;;;10.94;84.06;99651.63;5049820;28;20199;-83
2022/05/09 01:06:36;;;;;;;4.77;3.20;;;;;;;10.91;84.81;99654.41;5049017;28;20222;-92
2022/05/09 01:09:05;;;;;;;8.13;3.50;;;;;;;10.87;85.18;99647.81;5049745;27;20213;-83
2022/05/09 01:11:34;;;;;;;7.23;3.13;;;;;;;10.90;85.81;99652.75;5049698;28;20234;-91
2022/05/09 01:14:06;;;;;;;11.07;3.77;;;;;;;10.92;86.01;99650.91;5049702;28;20741;-91
2022/05/09 01:16:34;;;;;;;6.13;3.13;;;;;;;10.92;86.26;99650.09;5049441;28;20626;-92
2022/05/09 01:19:09;;;;;;;6.20;3.53;;;;;;;10.91;86.49;99648.44;5050389;28;20242;-92
2022/05/09 01:21:40;;;;;;;7.00;3.20;;;;;;;10.91;86.24;99649.28;5050464;28;20238;-92
2022/05/09 01:24:15;;;;;;;5.63;3.10;;;;;;;10.88;85.55;99642.63;5050161;28;20211;-92
2022/05/09 01:26:42;;;;;;;7.53;3.20;;;;;;;10.89;85.57;99651.09;5050007;28;20223;-91
2022/05/09 01:29:16;;;;;;;10.00;3.23;;;;;;;10.87;85.42;99645.25;5051797;28;20204;-92
2022/05/09 01:31:44;;;;;;;11.27;3.30;;;;;;;10.84;85.49;99653.94;5050058;28;20254;-92
2022/05/09 01:34:12;;;;;;;7.13;3.47;;;;;;;10.80;85.94;99651.69;5049363;28;20204;-83
2022/05/09 01:36:41;;;;;;;7.93;3.17;;;;;;;10.79;86.38;99652.59;5050117;28;20227;-92
2022/05/09 01:39:09;;;;;;;9.20;3.53;;;;;;;10.76;86.29;99655.34;5050222;28;20749;-92
2022/05/09 01:41:38;;;;;;;8.10;3.37;;;;;;;10.68;86.58;99660.16;5049768;28;20235;-83
2022/05/09 01:44:07;;;;;;;10.83;3.73;;;;;;;10.56;87.02;99657.47;5049972;28;20204;-83
2022/05/09 01:46:35;;;;;;;8.17;3.50;;;;;;;10.49;87.35;99656.19;5051237;28;20678;-92
2022/05/09 01:51:48;;;;;;;5.23;3.60;;;;;;;10.36;87.89;99665.56;5051306;28;20222;-85
2022/05/09 01:54:15;;;;;;;6.73;4.03;;;;;;;10.27;88.53;99663.53;5049988;28;20207;-84
2022/05/09 01:56:43;;;;;;;7.20;3.90;;;;;;;10.27;88.92;99666.09;5052097;28;20248;-92
2022/05/09 01:59:12;;;;;;;9.53;3.90;;;;;;;10.31;88.78;99667.56;5051232;28;20207;-84
2022/05/09 02:01:42;;;;;;;7.80;3.70;;;;;;;10.23;88.67;99659.53;5048956;28;20315;-92
2022/05/09 02:04:11;;;;;;;5.73;3.80;;;;;;;10.10;89.52;99662.84;5050788;28;20211;-92
2022/05/09 02:06:37;;;;;;;7.60;3.73;;;;;;;9.99;90.19;99665.22;5050019;28;20247;-84
2022/05/09 02:09:06;;;;;;;6.67;3.73;;;;;;;9.95;90.91;99661.22;5051193;28;20195;-84
2022/05/09 02:11:33;;;;;;;5.33;3.53;;;;;;;9.95;90.92;99669.69;5051248;28;20219;-83
2022/05/09 02:14:00;;;;;;;5.33;3.47;;;;;;;9.99;90.94;99670.31;5050807;28;20256;-91
2022/05/09 02:16:27;;;;;;;8.80;3.97;;;;;;;10.01;90.74;99671.06;5052975;28;20219;-90
2022/05/09 02:18:53;;;;;;;7.60;4.03;;;;;;;9.87;91.34;99671.06;5051870;28;20211;-92
2022/05/09 02:21:20;;;;;;;6.93;3.77;;;;;;;9.89;91.34;99669.22;5052090;28;20239;-93
2022/05/09 02:23:47;;;;;;;6.17;3.90;;;;;;;9.92;91.13;99676.72;5050024;28;20207;-84
2022/05/09 02:26:15;;;;;;;6.87;4.00;;;;;;;9.88;90.93;99677.81;5051059;28;20225;-92
2022/05/09 02:28:42;;;;;;;5.37;3.60;;;;;;;9.87;90.88;99681.28;5050961;28;20203;-93
2022/05/09 02:31:09;;;;;;;7.17;3.80;;;;;;;9.85;90.86;99683.09;5049531;28;20219;-92
2022/05/09 02:33:36;;;;;;;8.63;3.80;;;;;;;9.86;91.08;99684.72;5051923;28;20195;-92
2022/05/09 02:36:04;;;;;;;6.67;3.60;;;;;;;9.83;90.88;99687.47;5051044;28;20945;-84
2022/05/09 02:38:31;;;;;;;10.03;3.70;;;;;;;9.79;90.89;99688.56;5051653;28;20233;-84
2022/05/09 02:40:58;;;;;;;8.03;3.87;;;;;;;9.76;90.71;99687.03;5051571;28;20239;-92
2022/05/09 02:43:27;;;;;;;6.87;3.50;;;;;;;9.71;90.47;99682.16;5051138;28;20199;-84
2022/05/09 02:46:01;;;;;;;5.47;3.53;;;;;;;9.69;90.55;99681.47;5048709;28;20225;-85
2022/05/09 02:48:29;;;;;;;7.67;3.50;;;;;;;9.65;90.85;99682.53;5051390;28;20195;-92
2022/05/09 02:50:55;;;;;;;6.57;4.03;;;;;;;9.56;90.51;99688.19;5052385;28;20226;-84
2022/05/09 02:53:22;;;;;;;8.33;4.03;;;;;;;9.56;90.90;99688.19;5051706;28;20203;-84
2022/05/09 02:55:49;;;;;;;8.17;4.30;;;;;;;9.57;91.04;99684.75;5049719;28;20223;-84
2022/05/09 02:58:16;;;;;;;7.83;4.10;;;;;;;9.51;90.93;99685.06;5055505;28;20211;-91
2022/05/09 03:00:45;;;;;;;10.47;4.57;;;;;;;9.44;91.30;99689.72;5053310;28;20239;-92
2022/05/09 03:05:57;;;;;;;6.63;4.67;;;;;;;9.28;92.06;99689.78;5051545;28;20246;-84
2022/05/09 03:08:25;;;;;;;9.97;4.47;;;;;;;9.21;92.77;99697.88;5054310;28;20195;-84
2022/05/09 03:10:52;;;;;;;9.93;4.50;;;;;;;9.15;93.21;99699.03;5048969;28;20227;-92
2022/05/09 03:13:19;;;;;;;8.10;4.80;;;;;;;9.16;93.54;99700.69;5050095;28;20202;-84
2022/05/09 03:15:49;;;;;;;10.47;4.97;;;;;;;9.17;93.32;99704.88;5049394;28;20220;-84
2022/05/09 03:18:18;;;;;;;8.03;5.00;;;;;;;9.18;93.87;99698.88;5049994;28;20617;-92
2022/05/09 03:20:45;;;;;;;13.97;5.40;;;;;;;9.19;93.79;99704.78;5049835;28;20234;-92
2022/05/09 03:23:12;;;;;;;10.83;5.63;;;;;;;9.22;93.91;99710.56;5048702;28;20249;-84
2022/05/09 03:25:41;;;;;;;9.17;5.10;;;;;;;9.23;94.02;99702.00;5050380;28;20631;-92
2022/05/09 03:28:12;;;;;;;15.60;5.33;;;;;;;9.27;93.90;99708.53;5048827;28;20207;-83
2022/05/09 03:30:40;;;;;;;9.70;5.33;;;;;;;9.23;94.09;99709.63;5048646;28;20309;-91
2022/05/09 03:33:08;;;;;;;10.10;5.67;;;;;;;9.19;94.19;99710.72;5048794;28;20214;-83
2022/05/09 03:35:35;;;;;;;15.37;5.43;;;;;;;9.22;94.37;99714.81;5049150;28;20238;-93
2022/05/09 03:38:02;;;;;;;10.10;5.20;;;;;;;9.26;94.13;99719.66;5046915;28;20203;-84
2022/05/09 03:40:29;;;;;;;9.03;5.30;;;;;;;9.27;93.92;99723.84;5048280;28;20239;-92
2022/05/09 03:42:56;;;;;;;11.90;5.73;;;;;;;9.21;94.07;99718.28;5048519;28;20204;-91
2022/05/09 03:45:23;;;;;;;9.73;5.50;;;;;;;9.23;93.98;99716.47;5048414;27;20219;-92
2022/05/09 03:47:50;;;;;;;8.77;5.33;;;;;;;9.28;93.73;99717.88;5047131;28;20203;-92
2022/05/09 03:50:19;;;;;;;9.00;5.60;;;;;;;9.35;93.58;99717.50;5048122;28;20892;-93
2022/05/09 03:52:46;;;;;;;9.93;5.47;;;;;;;9.36;93.52;99721.69;5047502;28;20619;-92
2022/05/09 03:55:13;;;;;;;12.03;5.90;;;;;;;9.41;93.30;99730.72;5047217;28;20618;-92
2022/05/09 03:57:49;;;;;;;10.77;5.50;;;;;;;9.45;93.32;99721.16;5047220;28;20728;-92
2022/05/09 04:00:18;;;;;;;9.63;4.90;;;;;;;9.51;93.17;99723.34;5047684;28;20258;-92
2022/05/09 04:02:45;;;;;;;10.40;5.23;;;;;;;9.57;93.25;99729.84;5047623;28;20210;-93
2022/05/09 04:05:16;;;;;;;10.80;5.43;;;;;;;9.60;93.22;99724.56;5047568;28;20234;-92
2022/05/09 04:07:45;;;;;;;11.20;5.60;;;;;;;9.66;92.92;99730.16;5047683;28;20204;-92
2022/05/09 04:10:12;;;;;;;10.60;5.57;;;;;;;9.72;93.40;99734.91;5047957;28;20280;-92
2022/05/09 04:12:40;;;;;;;10.87;5.87;;;;;;;9.86;93.37;99735.81;5048104;28;20742;-93
2022/05/09 04:17:54;;;;;;;12.63;6.10;;;;;;;10.08;93.70;99750.69;5046831;28;20283;-89
2022/05/09 04:20:22;;;;;;;10.77;5.33;;;;;;;10.24;93.57;99743.78;5047314;28;20227;-90
2022/05/09 04:22:51;;;;;;;11.87;5.87;;;;;;;10.39;93.15;99744.59;5047045;27;20207;-90
2022/05/09 04:25:19;;;;;;;11.97;5.23;;;;;;;10.51;92.95;99748.97;5047055;28;20227;-92
2022/05/09 04:27:46;;;;;;;10.30;5.47;;;;;;;10.70;91.37;99746.06;5047131;28;20210;-90
2022/05/09 04:30:13;;;;;;;12.80;5.07;;;;;;;10.78;90.81;99745.59;5047220;28;20267;-90
2022/05/09 04:32:41;;;;;;;9.90;5.43;;;;;;;10.92;90.14;99753.25;5045817;28;20208;-91
2022/05/09 04:35:11;;;;;;;10.80;5.03;;;;;;;11.00;89.06;99748.47;5046976;28;20211;-92
2022/05/09 04:37:40;;;;;;;10.20;4.90;;;;;;;11.29;88.45;99750.91;5046893;28;20222;-92
2022/05/09 04:40:10;;;;;;;7.87;4.93;;;;;;;11.50;88.64;99749.50;5046823;28;20199;-90
2022/05/09 04:42:37;;;;;;;9.73;5.40;;;;;;;11.74;88.88;99748.81;5047037;28;20231;-92
2022/05/09 04:45:04;;;;;;;9.83;4.90;;;;;;;11.94;87.34;99745.75;5046924;28;20210;-93
2022/05/09 04:47:31;;;;;;;11.40;5.30;;;;;;;12.17;87.29;99748.50;5046582;28;20200;-89
2022/05/09 04:49:58;;;;;;;7.87;4.53;;;;;;;12.29;87.28;99752.78;5046563;28;20196;-89
2022/05/09 04:52:25;;;;;;;9.13;5.03;;;;;;;12.39;85.65;99753.81;5046792;28;20643;-90
2022/05/09 04:54:52;;;;;;;11.70;4.83;;;;;;;12.57;85.02;99756.03;5046801;28;20211;-89
2022/05/09 04:57:21;;;;;;;7.90;5.00;;;;;;;12.78;85.21;99763.97;5047154;28;21030;-89
2022/05/09 04:59:47;;;;;;;9.33;4.80;;;;;;;12.88;83.90;99758.06;5046619;28;20196;-92
2022/05/09 05:02:14;;;;;;;8.53;5.23;;;;;;;13.00;83.57;99763.25;5046057;28;20623;-88
2022/05/09 05:04:42;;;;;;;10.53;5.07;;;;;;;13.14;83.80;99770.78;5046195;28;20210;-91
2022/05/09 05:07:10;;;;;;;9.90;5.20;;;;;;;13.34;83.62;99761.66;5046809;27;20235;-93
2022/05/09 05:09:37;;;;;;;7.83;4.50;;;;;;;13.51;81.61;99768.16;5046203;28;20214;-93
2022/05/09 05:12:04;;;;;;;11.20;5.50;;;;;;;13.61;81.92;99769.09;5045898;28;20786;-87
2022/05/09 05:14:33;;;;;;;6.57;4.77;;;;;;;13.84;80.45;99766.56;5046405;28;20195;-93
2022/05/09 05:17:02;;;;;;;8.23;5.17;;;;;;;14.11;80.55;99767.06;5046070;28;20219;-92
2022/05/09 05:19:32;;;;;;;7.47;5.00;;;;;;;14.42;79.99;99759.56;5045797;28;20204;-81
2022/05/09 05:22:00;;;;;;;12.00;5.37;;;;;;;14.55;78.37;99769.78;5045252;28;20609;-81
2022/05/09 05:24:27;;;;;;;9.47;4.50;;;;;;;14.71;77.90;99773.56;5045688;28;20294;-91
2022/05/09 05:26:56;;;;;;;6.73;4.40;;;;;;;14.83;77.06;99773.56;5045663;28;20766;-93
2022/05/09 05:29:24;;;;;;;6.83;4.50;;;;;;;15.20;77.87;99775.78;5045937;28;20236;-91
2022/05/09 05:31:52;;;;;;;6.97;4.60;;;;;;;15.27;74.95;99782.06;5045293;28;20223;-82
2022/05/09 05:34:19;;;;;;;11.93;4.43;;;;;;;15.51;74.44;99789.59;5045796;28;20196;-90
2022/05/09 05:36:46;;;;;;;10.23;4.40;;;;;;;15.67;75.02;99789.13;5045956;28;20702;-91
2022/05/09 05:39:15;;;;;;;7.87;4.50;;;;;;;15.98;73.04;99797.75;5045598;28;20242;-83
2022/05/09 05:41:43;;;;;;;7.67;4.47;;;;;;;16.28;70.92;99799.53;5045651;28;20318;-82
2022/05/09 05:44:11;;;;;;;8.57;4.50;;;;;;;16.46;71.34;99797.13;5048144;28;20256;-92
2022/05/09 05:46:40;;;;;;;10.87;4.50;;;;;;;16.58;69.83;99805.59;5048926;28;20219;-82
2022/05/09 05:49:08;;;;;;;5.83;4.37;;;;;;;16.69;70.59;99805.50;5048954;28;20752;-82
2022/05/09 05:51:37;;;;;;;7.83;4.40;;;;;;;16.96;67.85;99810.06;5048439;28;20315;-84
2022/05/09 05:54:04;;;;;;;8.20;4.30;;;;;;;17.21;68.49;99808.72;5048832;28;20637;-89
2022/05/09 05:56:31;;;;;;;9.23;4.07;;;;;;;17.48;66.99;99812.38;5048881;28;20214;-92
2022/05/09 05:58:58;;;;;;;8.17;4.30;;;;;;;17.73;67.68;99814.41;5048753;28;20210;-91
2022/05/09 06:01:25;;;;;;;6.17;4.20;;;;;;;17.83;64.95;99810.06;5048794;28;20654;-86
2022/05/09 06:03:52;;;;;;;6.57;3.90;;;;;;;17.80;64.47;99815.53;5048397;28;20211;-89
2022/05/09 06:06:20;;;;;;;6.30;4.13;;;;;;;17.39;66.63;99826.94;5048543;27;20234;-91
2022/05/09 06:08:48;;;;;;;6.97;4.40;;;;;;;17.66;65.48;99826.28;5048649;28;20207;-92
2022/05/09 06:11:15;;;;;;;9.90;4.20;;;;;;;18.03;64.94;99830.69;5048429;28;20215;-91
2022/05/09 06:13:42;;;;;;;7.97;4.30;;;;;;;18.15;62.42;99832.19;5048219;28;20196;-88
2022/05/09 06:16:08;;;;;;;5.90;3.93;;;;;;;18.39;61.05;99842.03;5047935;28;20711;-88
2022/05/09 06:18:35;;;;;;;9.03;3.97;;;;;;;18.80;60.41;99844.34;5048047;28;20290;-87
2022/05/09 06:21:03;;;;;;;5.67;3.80;;;;;;;18.99;57.96;99836.41;5048178;27;20227;-87
2022/05/09 06:23:32;;;;;;;5.83;3.07;;;;;;;19.25;56.10;99843.47;5048554;28;20291;-92
2022/05/09 06:26:00;;;;;;;6.40;3.17;;;;;;;19.38;57.20;99836.16;5048088;28;20231;-87
2022/05/09 06:28:27;;;;;;;7.73;3.90;;;;;;;19.45;56.86;99845.75;5047998;28;20206;-91
2022/05/09 06:30:53;;;;;;;6.73;3.87;;;;;;;19.57;56.16;99841.16;5047879;28;20225;-91
2022/05/09 06:33:23;;;;;;;6.97;3.67;;;;;;;19.97;56.15;99839.84;5047964;28;20213;-88
2022/05/09 06:35:51;;;;;;;6.43;3.63;;;;;;;20.30;54.52;99842.63;5047817;28;20234;-92
2022/05/09 06:38:18;;;;;;;5.63;3.57;;;;;;;20.44;53.83;99836.84;5047902;28;20255;-87
2022/05/09 06:40:47;;;;;;;6.93;4.03;;;;;;;20.37;55.92;99843.66;5047839;28;20288;-90
2022/05/09 06:43:14;;;;;;;7.60;3.63;;;;;;;20.35;55.00;99842.97;5047610;28;20288;-87
2022/05/09 06:45:42;;;;;;;4.60;3.10;;;;;;;20.22;54.08;99842.59;5047761;28;20220;-89
2022/05/09 06:48:10;;;;;;;6.77;3.63;;;;;;;20.13;56.18;99839.16;5047547;28;20206;-89
2022/05/09 06:50:38;;;;;;;4.80;3.27;;;;;;;19.82;56.19;99846.56;5047737;27;20304;-87
2022/05/09 06:53:05;;;;;;;7.37;3.60;;;;;;;20.38;55.42;99842.66;5047619;28;20218;-90
2022/05/09 06:55:32;;;;;;;8.47;3.50;;;;;;;20.40;54.64;99840.75;5046795;28;20222;-87
2022/05/09 06:58:00;;;;;;;6.17;3.80;;;;;;;20.45;52.94;99851.47;5047537;28;20204;-87
2022/05/09 07:00:28;;;;;;;6.13;3.47;;;;;;;20.51;53.63;99840.47;5047745;28;20220;-91
2022/05/09 07:02:54;;;;;;;5.77;3.50;;;;;;;20.80;55.00;99842.69;5047814;28;20731;-90
2022/05/09 07:05:23;;;;;;;6.80;3.33;;;;;;;20.73;55.60;99848.69;5047603;28;20969;-90
2022/05/09 07:07:50;;;;;;;7.53;3.30;;;;;;;20.25;53.86;99852.69;5048084;28;20670;-90
2022/05/09 07:10:18;;;;;;;4.77;2.80;;;;;;;20.56;53.21;99848.59;5048146;28;20231;-92
2022/05/09 07:12:46;;;;;;;5.63;2.77;;;;;;;20.78;53.16;99849.03;5047846;28;20679;-91
2022/05/09 07:15:18;;;;;;;12.90;3.00;;;;;;;21.47;49.28;99850.47;5047892;28;20738;-90
2022/05/09 07:17:45;;;;;;;4.53;2.43;;;;;;;21.47;50.41;99845.28;5047630;28;20208;-91
2022/05/09 07:20:13;;;;;;;3.90;2.70;;;;;;;21.51;48.13;99850.94;5047711;28;20216;-86
2022/05/09 07:22:40;;;;;;;9.00;2.83;;;;;;;21.91;50.02;99851.91;5047600;28;20640;-88
2022/05/09 07:25:09;;;;;;;6.83;2.60;;;;;;;22.46;49.93;99855.53;5047618;28;20641;-91
2022/05/09 07:27:36;;;;;;;4.37;2.60;;;;;;;22.08;46.01;99848.28;5047370;28;20680;-92
2022/05/09 07:30:04;;;;;;;6.10;2.83;;;;;;;22.55;46.49;99855.31;5047913;28;20206;-90
2022/05/09 07:32:32;;;;;;;6.00;2.70;;;;;;;22.59;46.66;99851.38;5047744;28;20206;-93
2022/05/09 07:34:59;;;;;;;5.93;2.70;;;;;;;22.75;44.68;99850.50;5047918;28;20681;-89
2022/05/09 07:37:26;;;;;;;6.27;2.40;;;;;;;22.96;44.17;99851.72;5047357;28;20199;-90
2022/05/09 07:39:52;;;;;;;5.73;2.70;;;;;;;22.44;45.56;99857.50;5046828;28;20207;-89
2022/05/09 07:42:19;;;;;;;6.20;2.50;;;;;;;21.92;45.05;99849.13;5047079;28;20231;-88
2022/05/09 07:44:46;;;;;;;4.20;2.60;;;;;;;22.31;47.73;99853.63;5047262;28;20202;-90
2022/05/09 07:47:13;;;;;;;2.83;2.10;;;;;;;22.29;45.02;99852.97;5046941;28;20226;-89
2022/05/09 07:49:43;;;;;;;4.37;2.40;;;;;;;22.68;44.31;99857.38;5047039;28;20210;-91
2022/05/09 07:52:11;;;;;;;6.07;2.70;;;;;;;22.81;44.27;99849.03;5047061;28;20295;-90
2022/05/09 07:54:38;;;;;;;5.17;2.43;;;;;;;22.81;44.31;99849.81;5046965;28;20221;-89
2022/05/09 07:57:06;;;;;;;6.30;2.57;;;;;;;23.25;44.74;99854.47;5046616;28;20223;-83
2022/05/09 07:59:33;;;;;;;6.27;2.40;;;;;;;23.56;42.04;99853.59;5046819;27;20218;-82
2022/05/09 08:02:00;;;;;;;3.90;2.50;;;;;;;23.50;43.18;99859.50;5046569;28;20239;-82
2022/05/09 08:04:26;;;;;;;5.47;2.73;;;;;;;23.90;44.44;99854.94;5046887;28;20201;-91
2022/05/09 08:06:55;;;;;;;5.17;2.20;;;;;;;24.10;41.62;99858.63;5046570;28;20231;-82
2022/05/09 08:09:21;;;;;;;5.97;2.73;;;;;;;23.72;41.33;99858.69;5046586;28;20273;-90
2022/05/09 08:11:48;;;;;;;4.83;2.40;;;;;;;24.00;42.63;99855.50;5046610;28;20220;-82
2022/05/09 08:14:15;;;;;;;3.33;2.50;;;;;;;24.24;43.59;99853.59;5046919;28;20198;-82
2022/05/09 08:16:43;;;;;;;5.40;2.47;;;;;;;23.87;41.69;99855.28;5046446;28;20709;-86
2022/05/09 08:19:11;;;;;;;4.47;2.60;;;;;;;23.84;43.76;99858.25;5046866;28;20657;-86
2022/05/09 08:21:38;;;;;;;6.60;2.77;;;;;;;24.30;40.13;99865.94;5047366;28;20265;-92
2022/05/09 08:24:08;;;;;;;7.93;2.60;;;;;;;23.97;41.46;99868.91;5046272;28;20218;-89
2022/05/09 08:26:35;;;;;;;3.47;2.30;;;;;;;23.98;41.54;99875.75;5047306;28;20222;-89
2022/05/09 08:29:02;;;;;;;4.73;2.43;;;;;;;23.88;43.35;99868.19;5046752;28;20210;-92
2022/05/09 08:31:29;;;;;;;5.10;2.20;;;;;;;23.81;38.70;99866.44;5046616;28;20225;-93
2022/05/09 08:33:57;;;;;;;3.83;2.60;;;;;;;24.39;41.06;99870.91;5046344;28;20214;-88
2022/05/09 08:39:22;;;;;;;4.03;2.17;;;;;;;24.15;42.03;99879.00;4985110;28;20212;-88
2022/05/09 08:41:59;;;;;;;4.07;2.17;;;;;;;24.28;40.81;99873.16;5031944;28;20225;-88
2022/05/09 08:44:51;;;;;;;3.50;2.38;;;;;;;24.53;40.59;99866.69;5046630;28;20255;-91
2022/05/09 08:47:37;;;;;;;3.17;2.13;;;;;;;25.10;40.82;99866.91;5046687;28;20206;-91
2022/05/09 08:50:17;;;;;;;4.15;2.35;;;;;;;25.55;38.97;99867.56;5046349;28;20256;-92
2022/05/09 08:52:49;;;;;;;5.35;2.30;;;;;;;25.51;38.21;99864.47;5046631;28;20708;-92
2022/05/09 08:55:23;;;;;;;3.33;2.03;;;;;;;26.04;36.98;99874.59;5047017;28;20222;-88
2022/05/09 08:57:55;;;;;;;4.15;2.22;;;;;;;25.22;37.81;99870.66;5046610;28;20230;-88
2022/05/09 09:00:29;;;;;;;4.25;2.13;;;;;;;25.11;38.43;99874.56;5046352;28;20599;-88
2022/05/09 09:03:01;;;;;;;3.90;1.90;;;;;;;25.17;38.97;99875.69;5046061;28;20636;-88
2022/05/09 09:05:34;;;;;;;4.13;2.00;;;;;;;24.41;38.24;99878.56;5046180;28;20227;-91
2022/05/09 09:08:16;;;;;;;3.35;2.08;;;;;;;24.83;37.68;99882.31;5045863;27;20204;-92
2022/05/09 09:10:57;;;;;;;4.82;2.13;;;;;;;25.04;38.93;99876.31;5045613;28;20226;-91
2022/05/09 09:13:42;;;;;;;6.03;2.20;;;;;;;25.47;37.68;99871.91;5045666;28;20681;-87
2022/05/09 09:16:28;;;;;;;2.42;1.83;;;;;;;25.17;36.61;99880.91;5045670;28;20227;-87
2022/05/09 09:19:17;;;;;;;5.28;1.77;;;;;;;25.43;36.33;99878.53;5048223;28;20199;-88
2022/05/09 09:21:58;;;;;;;3.38;1.88;;;;;;;25.79;34.80;99888.09;5049157;28;20222;-89
2022/05/09 09:24:52;;;;;;;5.15;1.98;;;;;;;26.20;34.99;99890.00;5048935;28;20211;-88
2022/05/09 09:27:32;;;;;;;2.42;1.67;;;;;;;25.92;33.82;99882.97;5048889;28;20693;-89
2022/05/09 09:30:02;;;;;;;9.25;1.90;;;;;;;25.99;33.29;99882.22;5049130;28;20210;-91
2022/05/09 09:32:29;;;;;;;2.35;1.80;;;;;;;25.59;34.93;99881.88;5049015;28;20468;-89
2022/05/09 09:35:00;;;;;;;15.20;2.53;;;;;;;25.52;32.35;99882.63;5048931;27;20649;-88
2022/05/09 09:37:34;;;;;;;9.63;1.95;;;;;;;25.83;30.46;99878.91;5048948;28;20654;-89
2022/05/09 09:40:01;;;;;;;3.63;1.88;;;;;;;26.38;31.58;99882.47;5048566;28;20264;-88
2022/05/09 09:42:30;;;;;;;3.70;1.70;;;;;;;26.29;31.09;99883.59;5048760;28;20239;-88
2022/05/09 09:44:58;;;;;;;7.78;1.60;;;;;;;25.83;29.93;99876.28;5048724;28;20231;-91
2022/05/09 09:47:27;;;;;;;4.20;1.50;;;;;;;26.19;29.68;99873.47;5048813;28;20198;-90
2022/05/09 11:31:27;;;;;;;2.65;2.10;;;;;;;25.06;29.64;99835.88;5126678;27;20553;-92
2022/05/09 11:34:10;;;;;;;2.20;1.60;;;;;;;25.07;26.99;99832.28;5126808;28;20196;-90
2022/05/09 11:36:59;;;;;;;2.28;1.80;;;;;;;25.15;29.77;99833.16;5126736;28;20200;-90
2022/05/09 11:39:39;;;;;;;4.35;1.85;;;;;;;25.11;29.30;99831.91;5126480;28;20694;-90
2022/05/09 11:45:16;;;;;;;3.97;1.55;;;;;;;24.77;28.23;99825.50;5126036;28;20361;-90
2022/05/09 11:47:54;;;;;;;2.47;1.45;;;;;;;25.06;28.64;99817.56;5126046;28;20199;-91
2022/05/09 11:50:40;;;;;;;3.72;1.50;;;;;;;25.39;28.42;99819.69;5126424;28;20224;-90
2022/05/09 11:53:08;;;;;;;3.72;1.60;;;;;;;25.15;28.43;99812.22;5126038;28;20200;-90
2022/05/09 11:55:37;;;;;;;2.10;1.67;;;;;;;25.26;30.10;99816.97;5125694;28;20241;-89
2022/05/09 11:58:05;;;;;;;3.25;1.60;;;;;;;24.92;28.09;99813.19;5125973;28;20211;-90
2022/05/09 12:00:52;;;;;;;2.97;1.65;;;;;;;25.11;28.96;99800.50;5125880;28;20228;-89
2022/05/09 12:03:59;;;;;;;2.20;1.77;;;;;;;25.30;28.80;99802.50;5125762;27;20250;-90
2022/05/09 12:06:42;;;;;;;3.30;1.73;;;;;;;25.27;28.86;99795.03;5125523;28;20235;-90
2022/05/09 12:09:11;;;;;;;3.92;1.70;;;;;;;25.20;30.43;99794.16;5125703;28;20229;-91
2022/05/09 12:11:47;;;;;;;2.22;1.63;;;;;;;25.07;30.27;99793.03;5125402;28;20211;-91
2022/05/09 12:14:47;;;;;;;3.67;1.90;;;;;;;25.14;31.14;99789.69;5125578;28;20228;-91
2022/05/09 12:17:21;;;;;;;2.25;1.63;;;;;;;24.68;31.37;99785.59;5125754;28;20263;-90
2022/05/09 12:19:47;;;;;;;2.33;1.98;;;;;;;24.68;32.43;99779.56;5125120;28;20315;-89
2022/05/09 12:22:38;;;;;;;5.05;2.15;;;;;;;24.60;35.08;99780.47;5125539;27;20212;-91
2022/05/09 12:25:08;;;;;;;5.47;2.20;;;;;;;24.57;34.60;99773.00;5125463;28;20224;-92
2022/05/09 12:27:45;;;;;;;5.38;1.90;;;;;;;24.20;34.02;99776.56;5125568;27;20196;-92
2022/05/09 12:30:15;;;;;;;4.15;1.67;;;;;;;24.14;31.18;99773.69;5123222;28;20466;-89
2022/05/09 12:32:48;;;;;;;3.10;1.80;;;;;;;24.23;33.41;99776.19;5111360;28;20740;-89
2022/05/09 12:35:15;;;;;;;2.13;1.52;;;;;;;24.48;30.76;99774.91;5111991;28;20248;-91
2022/05/09 12:37:47;;;;;;;2.58;1.40;;;;;;;24.62;30.99;99771.44;5111583;28;20205;-90
2022/05/09 12:40:23;;;;;;;2.45;1.38;;;;;;;24.88;26.47;99764.06;5111395;28;20293;-92
2022/05/09 12:42:53;;;;;;;1.92;1.10;;;;;;;24.99;26.08;99767.00;5111702;28;20197;-86
2022/05/09 12:45:21;;;;;;;1.83;1.17;;;;;;;25.11;25.19;99764.66;5111251;28;20221;-91
2022/05/09 12:47:49;;;;;;;2.28;1.00;;;;;;;25.14;23.62;99761.72;5111529;28;20279;-88
2022/05/09 12:50:24;;;;;;;1.60;0.73;;;;;;;25.02;20.77;99761.38;5111068;28;20268;-86
2022/05/09 12:52:55;;;;;;;2.08;0.90;;;;;;;25.13;23.07;99757.41;5111282;28;20284;-87
2022/05/09 12:58:22;;;;;;;1.75;1.30;;;;;;;25.61;23.11;99754.19;5111213;28;20257;-91
2022/05/09 13:00:49;;;;;;;1.90;1.00;;;;;;;25.71;25.49;99750.22;5110801;28;20579;-86
2022/05/09 13:03:17;;;;;;;1.10;0.88;;;;;;;25.68;25.06;99739.31;5110920;28;20201;-91
2022/05/09 13:05:45;;;;;;;1.27;0.90;;;;;;;25.36;21.78;99746.75;5111188;28;20312;-91
2022/05/09 13:08:14;;;;;;;1.60;1.00;;;;;;;25.54;23.86;99743.69;5110668;28;20266;-89
2022/05/09 13:10:48;;;;;;;1.48;1.00;;;;;;;25.57;21.62;99737.22;5110662;28;20221;-86
2022/05/09 13:13:25;;;;;;;1.27;1.00;;;;;;;25.77;24.90;99738.13;5110512;28;20220;-86
2022/05/09 13:15:53;;;;;;;1.95;1.20;;;;;;;25.34;25.31;99730.44;5110934;28;20217;-91
2022/05/09 13:18:22;;;;;;;2.47;1.10;;;;;;;25.53;26.09;99731.56;5110529;28;20640;-85
2022/05/09 13:20:52;;;;;;;3.33;1.10;;;;;;;25.19;26.91;99730.56;5110546;28;20390;-91
2022/05/09 13:23:27;;;;;;;1.13;1.02;;;;;;;25.14;24.53;99721.66;5110638;28;20207;-92
2022/05/09 13:25:56;;;;;;;1.40;1.20;;;;;;;25.32;25.55;99724.59;5110810;28;20220;-90
2022/05/09 13:28:24;;;;;;;2.05;1.08;;;;;;;25.32;24.86;99724.59;5110378;28;20201;-92
2022/05/09 13:30:53;;;;;;;2.95;1.17;;;;;;;25.38;23.66;99718.59;5110360;28;20236;-86
2022/05/09 13:33:23;;;;;;;1.52;1.10;;;;;;;25.42;23.49;99714.56;5110634;28;20255;-92
2022/05/09 13:35:52;;;;;;;4.10;1.10;;;;;;;25.49;24.21;99710.19;5110245;28;20718;-91
2022/05/09 13:38:23;;;;;;;1.48;1.05;;;;;;;25.62;24.44;99714.69;5110398;28;20678;-87
2022/05/09 13:40:55;;;;;;;2.53;1.20;;;;;;;25.74;25.09;99701.88;5110045;28;20229;-86
2022/05/09 13:43:26;;;;;;;1.13;1.00;;;;;;;25.58;23.52;99702.19;5109125;28;20212;-86
2022/05/09 13:46:01;;;;;;;2.10;1.00;;;;;;;25.42;24.00;99704.09;5110037;28;20682;-87